Time,TemperatureF,DewpointF,PressureIn,WindDirection,WindDirectionDegrees,WindSpeedMPH,WindSpeedGustMPH,Humidity,HourlyPrecipIn,Conditions,Clouds,dailyrainin,SoftwareType,DateUTC
2013-02-22 00:02:00,27.0,27.0,30.01,ESE,112,6.0,14.0,99,0.00,,,0.00,,2013-02-22 05:02:00,
2013-02-22 00:12:00,27.0,27.0,30.01,ESE,112,6.0,14.0,99,0.00,,,0.00,,2013-02-22 05:12:00,
2013-02-22 00:22:00,27.0,27.0,30.00,SE,135,8.0,15.0,99,0.00,,,0.00,,2013-02-22 05:22:00,
2013-02-22 00:32:00,27.0,27.0,29.98,ESE,106,8.0,18.0,99,0.00,,,0.00,,2013-02-22 05:32:00,
2013-02-22 00:41:00,27.0,27.0,29.96,ESE,120,10.0,15.0,99,0.00,,,0.00,,2013-02-22 05:41:00,
2013-02-22 00:52:00,27.0,27.0,29.96,ESE,120,10.0,15.0,99,0.00,,,0.00,,2013-02-22 05:52:00,
2013-02-22 01:01:00,27.0,27.0,29.96,ESE,109,6.0,10.0,99,0.00,,,0.00,,2013-02-22 06:01:00,
2013-02-22 01:11:00,27.0,27.0,29.94,ESE,107,12.0,16.0,99,0.00,,,0.00,,2013-02-22 06:11:00,
2013-02-22 01:21:00,27.0,27.0,29.94,ESE,107,12.0,16.0,99,0.00,,,0.00,,2013-02-22 06:21:00,
2013-02-22 01:31:00,27.0,27.0,29.91,ESE,112,8.0,17.0,99,0.00,,,0.00,,2013-02-22 06:31:00,
2013-02-22 01:42:00,27.0,27.0,29.91,ESE,112,8.0,17.0,99,0.00,,,0.00,,2013-02-22 06:42:00,
2013-02-22 01:51:00,27.0,27.0,29.92,East,101,5.0,20.0,99,0.00,,,0.00,,2013-02-22 06:51:00,
2013-02-22 02:01:00,28.0,28.0,29.91,SSE,152,8.0,15.0,99,0.00,,,0.00,,2013-02-22 07:01:00,
2013-02-22 02:11:00,28.0,28.0,29.90,ESE,106,8.0,12.0,99,0.00,,,0.00,,2013-02-22 07:11:00,
2013-02-22 02:21:00,28.0,28.0,29.90,ESE,106,8.0,12.0,99,0.00,,,0.00,,2013-02-22 07:21:00,
2013-02-22 02:31:00,28.0,28.0,29.90,ESE,109,7.0,8.0,99,0.00,,,0.00,,2013-02-22 07:31:00,
2013-02-22 02:42:00,28.0,28.0,29.90,ESE,113,9.0,13.0,99,0.00,,,0.00,,2013-02-22 07:42:00,
2013-02-22 02:51:00,28.0,28.0,29.90,ESE,113,9.0,13.0,99,0.00,,,0.00,,2013-02-22 07:51:00,
2013-02-22 03:01:00,28.0,28.0,29.88,ESE,123,6.0,9.0,99,0.00,,,0.00,,2013-02-22 08:01:00,
2013-02-22 03:11:00,29.0,29.0,29.88,ESE,118,6.0,10.0,99,0.00,,,0.00,,2013-02-22 08:11:00,
2013-02-22 03:21:00,29.0,29.0,29.88,ESE,118,6.0,10.0,99,0.00,,,0.00,,2013-02-22 08:21:00,
2013-02-22 03:31:00,29.0,29.0,29.87,ENE,69,0.0,0.0,99,0.00,,,0.00,,2013-02-22 08:31:00,
2013-02-22 03:41:00,29.0,29.0,29.87,ENE,69,0.0,0.0,99,0.00,,,0.00,,2013-02-22 08:41:00,
2013-02-22 03:52:00,29.0,29.0,29.87,ENE,69,0.0,0.0,99,0.00,,,0.00,,2013-02-22 08:52:00,
2013-02-22 04:03:00,29.0,29.0,29.87,ENE,69,0.0,0.0,99,0.00,,,0.00,,2013-02-22 09:03:00,
2013-02-22 04:11:00,29.0,29.0,29.87,ENE,69,0.0,0.0,99,0.00,,,0.00,,2013-02-22 09:11:00,
2013-02-22 04:21:00,29.0,29.0,29.87,ENE,69,0.0,0.0,99,0.00,,,0.00,,2013-02-22 09:21:00,
2013-02-22 04:32:00,29.0,29.0,29.87,ENE,69,0.0,0.0,99,0.00,,,0.00,,2013-02-22 09:32:00,
2013-02-22 04:42:00,30.0,30.0,29.86,ENE,69,0.0,0.0,99,0.00,,,0.00,,2013-02-22 09:42:00,
2013-02-22 04:51:00,30.0,30.0,29.86,ENE,69,0.0,0.0,99,0.00,,,0.00,,2013-02-22 09:51:00,
2013-02-22 05:01:00,30.0,30.0,29.85,ENE,69,0.0,0.0,99,0.00,,,0.00,,2013-02-22 10:01:00,
2013-02-22 05:11:00,30.0,30.0,29.85,ENE,69,0.0,0.0,99,0.00,,,0.00,,2013-02-22 10:11:00,
2013-02-22 05:21:00,30.0,30.0,29.85,ENE,69,0.0,0.0,99,0.00,,,0.00,,2013-02-22 10:21:00,
2013-02-22 05:32:00,31.0,31.0,29.84,ENE,69,0.0,0.0,99,0.00,,,0.00,,2013-02-22 10:32:00,
2013-02-22 05:42:00,31.0,31.0,29.84,ENE,69,0.0,0.0,99,0.00,,,0.00,,2013-02-22 10:42:00,
2013-02-22 05:51:00,31.0,31.0,29.84,ENE,69,0.0,0.0,99,0.00,,,0.00,,2013-02-22 10:51:00,
2013-02-22 06:01:00,31.0,31.0,29.84,ENE,69,0.0,0.0,99,0.00,,,0.00,,2013-02-22 11:01:00,
2013-02-22 06:11:00,31.0,31.0,29.84,ENE,69,0.0,0.0,99,0.00,,,0.00,,2013-02-22 11:11:00,
2013-02-22 06:21:00,31.0,31.0,29.84,ENE,69,0.0,0.0,99,0.00,,,0.00,,2013-02-22 11:21:00,
2013-02-22 06:32:00,31.0,31.0,29.84,ENE,69,0.0,0.0,99,0.00,,,0.00,,2013-02-22 11:32:00,
2013-02-22 06:42:00,31.0,31.0,29.84,ENE,69,0.0,0.0,99,0.00,,,0.00,,2013-02-22 11:42:00,
2013-02-22 06:52:00,31.0,31.0,29.84,ENE,69,0.0,0.0,99,0.00,,,0.00,,2013-02-22 11:52:00,
2013-02-22 07:02:00,32.0,32.0,29.84,ENE,69,0.0,0.0,99,0.00,,,0.00,,2013-02-22 12:02:00,
2013-02-22 07:11:00,32.0,32.0,29.84,ENE,69,0.0,0.0,99,0.00,,,0.00,,2013-02-22 12:11:00,
2013-02-22 07:21:00,32.0,32.0,29.84,ENE,69,0.0,0.0,99,0.00,,,0.00,,2013-02-22 12:21:00,
2013-02-22 07:32:00,32.0,32.0,29.84,ENE,69,0.0,0.0,99,0.00,,,0.00,,2013-02-22 12:32:00,
2013-02-22 07:42:00,32.0,32.0,29.84,ENE,69,0.0,0.0,99,0.00,,,0.00,,2013-02-22 12:42:00,
2013-02-22 07:52:00,32.0,32.0,29.83,ENE,69,0.0,0.0,99,0.00,,,0.00,,2013-02-22 12:52:00,
2013-02-22 08:02:00,32.0,32.0,29.83,ENE,69,0.0,0.0,99,0.00,,,0.00,,2013-02-22 13:02:00,
2013-02-22 08:11:00,32.0,32.0,29.83,ENE,69,0.0,0.0,99,0.00,,,0.00,,2013-02-22 13:11:00,
2013-02-22 08:22:00,33.0,33.0,29.84,ENE,69,0.0,0.0,99,0.00,,,0.00,,2013-02-22 13:22:00,
2013-02-22 08:32:00,33.0,33.0,29.84,ENE,69,0.0,0.0,99,0.00,,,0.00,,2013-02-22 13:32:00,
2013-02-22 08:42:00,33.0,33.0,29.84,ENE,69,0.0,0.0,99,0.00,,,0.00,,2013-02-22 13:42:00,
2013-02-22 08:52:00,33.0,33.0,29.84,ENE,69,0.0,0.0,99,0.00,,,0.00,,2013-02-22 13:52:00,
2013-02-22 09:01:00,33.0,33.0,29.84,ENE,69,0.0,0.0,99,0.00,,,0.00,,2013-02-22 14:01:00,
2013-02-22 09:11:00,33.0,33.0,29.84,ENE,69,0.0,0.0,99,0.00,,,0.00,,2013-02-22 14:11:00,
2013-02-22 09:21:00,33.0,33.0,29.84,ENE,69,0.0,0.0,99,0.00,,,0.00,,2013-02-22 14:21:00,
2013-02-22 09:32:00,33.0,33.0,29.83,ENE,69,0.0,0.0,99,0.00,,,0.00,,2013-02-22 14:32:00,
2013-02-22 09:42:00,34.0,34.0,29.83,ENE,69,0.0,0.0,99,0.00,,,0.00,,2013-02-22 14:42:00,
2013-02-22 09:52:00,34.0,34.0,29.83,ENE,69,0.0,0.0,99,0.00,,,0.00,,2013-02-22 14:52:00,
2013-02-22 10:01:00,34.0,34.0,29.84,ENE,69,0.0,0.0,99,0.00,,,0.00,,2013-02-22 15:01:00,
2013-02-22 10:11:00,34.0,34.0,29.84,ENE,69,0.0,0.0,99,0.00,,,0.00,,2013-02-22 15:11:00,
2013-02-22 10:21:00,34.0,34.0,29.84,ENE,69,0.0,0.0,99,0.00,,,0.00,,2013-02-22 15:21:00,
2013-02-22 10:32:00,34.0,34.0,29.85,ENE,69,0.0,0.0,99,0.00,,,0.00,,2013-02-22 15:32:00,
2013-02-22 10:41:00,34.0,34.0,29.85,ENE,69,0.0,0.0,99,0.00,,,0.00,,2013-02-22 15:41:00,
2013-02-22 10:52:00,34.0,34.0,29.85,ENE,69,0.0,0.0,99,0.00,,,0.00,,2013-02-22 15:52:00,
2013-02-22 11:01:00,35.0,35.0,29.85,ENE,69,0.0,0.0,99,0.00,,,0.00,,2013-02-22 16:01:00,
2013-02-22 11:12:00,35.0,35.0,29.85,ENE,69,0.0,0.0,99,0.00,,,0.00,,2013-02-22 16:12:00,
2013-02-22 11:21:00,35.0,35.0,29.85,ENE,69,0.0,0.0,99,0.00,,,0.00,,2013-02-22 16:21:00,
2013-02-22 11:32:00,35.0,35.0,29.85,WSW,249,7.0,15.0,99,0.00,,,0.00,,2013-02-22 16:32:00,
2013-02-22 11:42:00,35.0,35.0,29.85,WSW,249,7.0,15.0,99,0.00,,,0.00,,2013-02-22 16:42:00,
2013-02-22 11:52:00,35.0,35.0,29.86,WSW,248,7.0,12.0,99,0.00,,,0.00,,2013-02-22 16:52:00,
2013-02-22 12:01:00,35.0,35.0,29.87,West,265,10.0,14.0,99,0.00,,,0.00,,2013-02-22 17:01:00,
2013-02-22 12:11:00,35.0,35.0,29.87,West,259,13.0,23.0,99,0.00,,,0.00,,2013-02-22 17:11:00,
2013-02-22 12:21:00,35.0,35.0,29.87,West,259,13.0,23.0,99,0.00,,,0.00,,2013-02-22 17:21:00,
2013-02-22 12:32:00,35.0,35.0,29.87,WSW,237,8.0,13.0,99,0.00,,,0.00,,2013-02-22 17:32:00,
2013-02-22 12:42:00,35.0,35.0,29.87,WSW,237,8.0,13.0,99,0.00,,,0.00,,2013-02-22 17:42:00,
2013-02-22 12:52:00,35.0,35.0,29.88,WSW,247,12.0,14.0,99,0.00,,,0.00,,2013-02-22 17:52:00,
2013-02-22 13:01:00,35.0,35.0,29.88,West,262,12.0,18.0,99,0.02,,,0.02,,2013-02-22 18:01:00,
2013-02-22 13:12:00,35.0,35.0,29.88,WSW,243,7.0,10.0,99,0.03,,,0.03,,2013-02-22 18:12:00,
2013-02-22 13:22:00,35.0,35.0,29.88,WSW,243,7.0,10.0,99,0.03,,,0.03,,2013-02-22 18:22:00,
2013-02-22 13:32:00,35.0,35.0,29.88,West,261,9.0,14.0,99,0.05,,,0.05,,2013-02-22 18:32:00,
2013-02-22 13:42:00,35.0,35.0,29.88,West,261,9.0,14.0,99,0.05,,,0.05,,2013-02-22 18:42:00,
2013-02-22 13:51:00,35.0,35.0,29.88,West,269,8.0,13.0,99,0.06,,,0.06,,2013-02-22 18:51:00,
2013-02-22 14:01:00,35.0,35.0,29.88,West,263,8.0,16.0,99,0.05,,,0.07,,2013-02-22 19:01:00,
2013-02-22 14:11:00,35.0,35.0,29.88,West,266,13.0,15.0,99,0.05,,,0.08,,2013-02-22 19:11:00,
2013-02-22 14:21:00,35.0,35.0,29.88,West,266,13.0,15.0,99,0.05,,,0.08,,2013-02-22 19:21:00,
2013-02-22 14:31:00,35.0,35.0,29.88,West,261,12.0,20.0,99,0.05,,,0.10,,2013-02-22 19:31:00,
2013-02-22 14:41:00,36.0,36.0,29.88,WSW,253,13.0,17.0,99,0.05,,,0.11,,2013-02-22 19:41:00,
2013-02-22 14:52:00,36.0,36.0,29.88,WSW,253,13.0,17.0,99,0.05,,,0.11,,2013-02-22 19:52:00,
2013-02-22 15:01:00,36.0,36.0,29.88,West,279,8.0,15.0,99,0.07,,,0.14,,2013-02-22 20:01:00,
2013-02-22 15:11:00,36.0,36.0,29.88,West,279,8.0,15.0,99,0.07,,,0.14,,2013-02-22 20:11:00,
2013-02-22 15:21:00,36.0,36.0,29.88,West,259,8.0,16.0,99,0.07,,,0.15,,2013-02-22 20:21:00,
2013-02-22 15:31:00,36.0,36.0,29.88,WSW,255,10.0,13.0,99,0.06,,,0.16,,2013-02-22 20:31:00,
2013-02-22 15:41:00,36.0,36.0,29.88,WSW,255,10.0,13.0,99,0.06,,,0.16,,2013-02-22 20:41:00,
2013-02-22 15:52:00,36.0,36.0,29.88,West,264,9.0,14.0,99,0.06,,,0.17,,2013-02-22 20:52:00,
2013-02-22 16:01:00,37.0,37.0,29.89,WSW,255,10.0,16.0,99,0.05,,,0.19,,2013-02-22 21:01:00,
2013-02-22 16:11:00,37.0,37.0,29.89,West,261,12.0,15.0,99,0.05,,,0.20,,2013-02-22 21:11:00,
2013-02-22 16:21:00,37.0,37.0,29.89,West,261,12.0,15.0,99,0.05,,,0.20,,2013-02-22 21:21:00,
2013-02-22 16:32:00,36.0,36.0,29.89,WSW,253,8.0,13.0,99,0.05,,,0.21,,2013-02-22 21:32:00,
2013-02-22 16:42:00,36.0,36.0,29.90,West,262,8.0,9.0,99,0.04,,,0.21,,2013-02-22 21:42:00,
2013-02-22 16:51:00,36.0,36.0,29.90,West,262,8.0,9.0,99,0.04,,,0.21,,2013-02-22 21:51:00,
2013-02-22 17:01:00,36.0,36.0,29.90,WSW,254,9.0,13.0,99,0.03,,,0.22,,2013-02-22 22:01:00,
2013-02-22 17:11:00,36.0,36.0,29.90,WSW,254,9.0,13.0,99,0.03,,,0.22,,2013-02-22 22:11:00,
2013-02-22 17:21:00,36.0,36.0,29.90,West,262,8.0,14.0,99,0.02,,,0.22,,2013-02-22 22:21:00,
2013-02-22 17:31:00,36.0,36.0,29.90,West,259,6.0,10.0,99,0.02,,,0.23,,2013-02-22 22:31:00,
2013-02-22 17:41:00,36.0,36.0,29.90,West,259,6.0,10.0,99,0.02,,,0.23,,2013-02-22 22:41:00,
2013-02-22 17:51:00,35.0,35.0,29.90,West,268,10.0,15.0,99,0.02,,,0.23,,2013-02-22 22:51:00,
2013-02-22 18:01:00,35.0,35.0,29.91,West,266,9.0,10.0,99,0.01,,,0.23,,2013-02-22 23:01:00,
2013-02-22 18:11:00,35.0,35.0,29.91,West,266,9.0,10.0,99,0.01,,,0.23,,2013-02-22 23:11:00,
2013-02-22 18:21:00,34.0,34.0,29.91,WSW,258,6.0,7.0,99,0.01,,,0.23,,2013-02-22 23:21:00,
2013-02-22 18:31:00,34.0,34.0,29.91,West,273,8.0,14.0,99,0.01,,,0.24,,2013-02-22 23:31:00,
2013-02-22 18:41:00,34.0,34.0,29.91,West,273,8.0,14.0,99,0.01,,,0.24,,2013-02-22 23:41:00,
2013-02-22 18:52:00,34.0,34.0,29.92,West,268,8.0,10.0,99,0.01,,,0.24,,2013-02-22 23:52:00,
2013-02-22 19:01:00,34.0,34.0,29.92,WNW,297,7.0,9.0,99,0.01,,,0.24,,2013-02-23 00:01:00,
2013-02-22 19:11:00,34.0,34.0,29.93,West,272,12.0,17.0,99,0.01,,,0.24,,2013-02-23 00:11:00,
2013-02-22 19:21:00,34.0,34.0,29.93,West,272,12.0,17.0,99,0.01,,,0.24,,2013-02-23 00:21:00,
2013-02-22 19:32:00,33.0,33.0,29.94,West,281,10.0,15.0,99,0.00,,,0.24,,2013-02-23 00:32:00,
2013-02-22 19:42:00,33.0,33.0,29.94,West,281,10.0,15.0,99,0.00,,,0.24,,2013-02-23 00:42:00,
2013-02-22 19:51:00,33.0,33.0,29.93,WNW,287,8.0,15.0,99,0.00,,,0.24,,2013-02-23 00:51:00,
2013-02-22 20:01:00,33.0,33.0,29.93,WNW,293,7.0,10.0,99,0.00,,,0.24,,2013-02-23 01:01:00,
2013-02-22 20:11:00,33.0,33.0,29.93,WNW,293,7.0,10.0,99,0.00,,,0.24,,2013-02-23 01:11:00,
2013-02-22 20:21:00,33.0,33.0,29.94,WNW,289,7.0,8.0,99,0.00,,,0.24,,2013-02-23 01:21:00,
2013-02-22 20:31:00,33.0,33.0,29.95,WNW,289,9.0,13.0,99,0.00,,,0.24,,2013-02-23 01:31:00,
2013-02-22 20:42:00,33.0,33.0,29.95,WNW,289,9.0,13.0,99,0.00,,,0.24,,2013-02-23 01:42:00,
2013-02-22 20:51:00,33.0,33.0,29.95,WNW,282,8.0,12.0,99,0.00,,,0.24,,2013-02-23 01:51:00,
2013-02-22 21:01:00,33.0,33.0,29.95,WNW,290,8.0,17.0,99,0.00,,,0.24,,2013-02-23 02:01:00,
2013-02-22 21:11:00,32.0,32.0,29.96,WNW,293,6.0,13.0,99,0.00,,,0.24,,2013-02-23 02:11:00,
2013-02-22 21:21:00,32.0,32.0,29.96,WNW,293,6.0,13.0,99,0.00,,,0.24,,2013-02-23 02:21:00,
2013-02-22 21:31:00,32.0,32.0,29.96,WNW,294,8.0,13.0,99,0.00,,,0.24,,2013-02-23 02:31:00,
2013-02-22 21:41:00,32.0,32.0,29.96,WNW,294,8.0,13.0,99,0.00,,,0.24,,2013-02-23 02:41:00,
2013-02-22 21:52:00,32.0,32.0,29.96,WNW,298,7.0,15.0,98,0.00,,,0.24,,2013-02-23 02:52:00,
2013-02-22 22:01:00,32.0,31.0,29.96,WNW,291,13.0,15.0,97,0.01,,,0.25,,2013-02-23 03:01:00,
2013-02-22 22:11:00,32.0,31.0,29.97,WNW,291,13.0,20.0,97,0.01,,,0.25,,2013-02-23 03:11:00,
2013-02-22 22:21:00,32.0,31.0,29.97,WNW,291,13.0,20.0,97,0.01,,,0.25,,2013-02-23 03:21:00,
2013-02-22 22:32:00,31.0,30.0,29.97,WNW,295,14.0,14.0,95,0.01,,,0.25,,2013-02-23 03:32:00,
2013-02-22 22:41:00,31.0,30.0,29.97,WNW,295,14.0,14.0,95,0.01,,,0.25,,2013-02-23 03:41:00,
2013-02-22 22:51:00,31.0,30.0,29.97,WNW,296,10.0,18.0,95,0.01,,,0.25,,2013-02-23 03:51:00,
2013-02-22 23:01:00,31.0,29.0,29.98,NW,305,8.0,12.0,94,0.00,,,0.25,,2013-02-23 04:01:00,
2013-02-22 23:11:00,31.0,29.0,29.98,WNW,297,9.0,12.0,94,0.00,,,0.25,,2013-02-23 04:11:00,
2013-02-22 23:21:00,31.0,29.0,29.98,WNW,297,9.0,12.0,94,0.00,,,0.25,,2013-02-23 04:21:00,
2013-02-22 23:31:00,31.0,29.0,29.98,WNW,286,8.0,8.0,94,0.00,,,0.25,,2013-02-23 04:31:00,
2013-02-22 23:41:00,31.0,29.0,29.98,WNW,286,8.0,8.0,94,0.00,,,0.25,,2013-02-23 04:41:00,
2013-02-22 23:51:00,31.0,29.0,29.98,WNW,292,9.0,13.0,94,0.00,,,0.25,,2013-02-23 04:51:00,